Terminal Aerodrome Forecast
Issued by NWS

Home | Current Version | Previous Version | Text Only | Print | Product List | Glossary On
Versions: 1 2 3 4 5 6 7 8 9 10 11 12 13 14 15 16 17 18 19 20 21 22 23 24
000
FTUS44 KOUN 312329
TAFPNC
TAF
KPNC 312329Z 0100/0124 15010KT 3SM -RA BR OVC008
     FM010500 20008KT 2SM -RA BR OVC005
     FM011200 32012KT 4SM -RA BR OVC008
     FM011500 33018G27KT P6SM BKN015
     FM011900 33022G31KT P6SM BKN025=

USA.gov is the U.S. government's official web portal to all federal, state and local government web resources and services.